Knutsford, United Kingdom
Current Conditions -  °F | °C
As of 5:50 PM on Thursday 23 Oct 2014 (Local Time) from EGCC Reporting Station
Light Rain Light Rain  
Wind Chill: 15°   Ceiling: 1800
Heat Index: 15°   Visibility: 3mi
Dew Point: 13°   Wind: 10mph
Humidity: 88%   Direction: 200°SSW
Pressure: 29.88"   Gusts: NA
Location:  53.3°N, 2.37°W
Report Text: EGCC 231650Z AUTO 20009KT 5000 -RA BKN018 BKN023 OVC030 15/13 Q1012 RESHRA
Loading
Personal Weather Stations






























Interactive Weather Map
Tropical Storm Tracking
New forecast layout! Learn more

10-Day Weather Forecast

Advertisements
Track Severe Weather on mobile